Mansfield Hollow, Connecticut
Current Conditions -  °F | °C
As of 3:52 PM on Tuesday 21 Oct 2014 (Local Time) from KIJD Reporting Station
Few Clouds Few Clouds  
Wind Chill: 20°   Ceiling: Unl
Heat Index: 20°   Visibility: 10mi
Dew Point:   Wind: 5mph
Humidity: 42%   Direction: 210°SSW
Pressure: 29.87"   Gusts: NA
Location:  41.7742°N, 72.196°W
Report Text: KIJD 211952Z AUTO 21004KT 10SM FEW120 20/07 A2987 RMK AO2 SLP114 T02000067
Loading
Personal Weather Stations






























Interactive Weather Map
Tropical Storm Tracking
New forecast layout! Learn more

10-Day Weather Forecast

Advertisements
Track Severe Weather on mobile